Aeroporto :
LOGIN :

Iscrizione | Disclaimer

   EN    FR    IT 

 










Sommario :    VFR   VFR Marginale   IFR   IFR Intensivo   IFR Molto Intensivo
Visibilità : 
Base nubi : 
>= 8 km
>= 3000ft
5 / 8 km
1000 / 3000 ft
1500m / 5 km
500 / 1000 ft
800 / 1500m
200 / 500 ft
< 800m
< 200 ft
Simboli :   Temporali  Nebbia  Neve Forte  Precipitazioni Forti  Vento > 20 kt
SIGMETs :   Varie  Temporali  Ghiacco  Turbolenza  Onda orograficha  Ceneri Vulcaniche






- Altitudine del aeroporto : 26 ft


ETNT - Wittmundhaven AB

ULTIMO METAR :
  • 211606Z 23014KT 9000 -RA BKN023 07/04 Q1018 WHT

METARs OBSOLETI :
  • 211520Z 23017KT 9999 SCT025 BKN060 08/03 Q1018 BLU
  • 211420Z 23018G31KT 9999 FEW021 BKN060 BKN100 08/04 Q1018 BLU
  • 211320Z 23017G27KT 9999 -RA SCT020 BKN037 08/04 Q1019 BLU

TAF TAF ETNT
Valido dal 21 a 15 ore il 22 a 00 ore UTC


211401Z 2115/2124 22020G30KT 8000 -RA FEW020 BKN030
TEMPO 2115/2124 24022G35KT 4000 RADZ BKN010 OVC020 BY ETGL



MetMap, La meteo Aeronautica in un colpo d'occhio ! - Copyright ORBIFLY Dicembre 2007 - Disclaimer

ORBIFLY MET'MAP TEAM :

Programmazione e sviluppo : Alexandra Zaïnal
Concezione : Baudouin d'Aumeries
Aiuto per la programmazione : Marc-Olivier Méhu
Supporto tecnico e logistico : Manuel Goepfert
Aiuto per la traduzione : Arnaldo La Scala

Contatto : metmap@orbifly.com




FONTI E CREDITI :

   NOAA